Time;durP1;ratioP1;P1;durP2;ratioP2;P2;SDS_P1;SDS_P2;PMS_P1;PMS_P2;Temp;Humidity;BMP_temperature;BMP_pressure;BME280_temperature;BME280_humidity;BME280_pressure;Samples;Min_cycle;Max_cycle;Signal;HPM_P1;HPM_P2
2022/06/15 00:00:07;;;;;;;;;;;;;;;16.73;83.21;99867.75;1719734;82;20233;-80
2022/06/15 00:03:11;;;;;;;;;;;;;;;16.74;83.01;99861.99;1736213;82;20620;-80
2022/06/15 00:06:18;;;;;;;;;;;;;;;16.78;83.01;99852.72;1737356;82;20246;-80
2022/06/15 00:09:23;;;;;;;;;;;;;;;16.79;84.00;99844.20;1736588;82;20257;-80
2022/06/15 00:12:27;;;;;;;;;;;;;;;16.75;85.45;99828.31;1737158;82;20660;-81
2022/06/15 00:15:33;;;;;;;;;;;;;;;16.64;88.26;99830.42;1737518;82;20643;-80
2022/06/15 00:18:39;;;;;;;;;;;;;;;16.44;91.23;99841.13;1736555;82;20616;-80
2022/06/15 00:21:44;;;;;;;;;;;;;;;16.25;93.15;99843.52;1737189;82;20250;-80
2022/06/15 00:24:48;;;;;;;;;;;;;;;16.04;94.95;99841.45;1737224;82;20241;-81
2022/06/15 00:27:53;;;;;;;;;;;;;;;15.89;96.43;99839.52;1737361;82;20242;-80
2022/06/15 00:30:57;;;;;;;;;;;;;;;15.74;97.14;99845.89;1737281;82;20238;-80
2022/06/15 00:34:03;;;;;;;;;;;;;;;15.65;97.29;99843.08;1736328;82;20233;-81
2022/06/15 00:37:08;;;;;;;;;;;;;;;15.60;96.89;99845.08;1735742;82;20253;-81
2022/06/15 00:40:14;;;;;;;;;;;;;;;15.58;96.04;99852.20;1735634;82;20249;-80
2022/06/15 00:43:21;;;;;;;;;;;;;;;15.61;95.68;99856.41;1737295;82;20242;-80
2022/06/15 00:46:41;;;;;;;;;;;;;;;15.65;95.72;99858.23;1737170;82;20238;-80
2022/06/15 00:50:04;;;;;;;;;;;;;;;15.69;95.93;99860.88;1718178;83;20640;-80
2022/06/15 00:53:13;;;;;;;;;;;;;;;15.71;95.64;99865.08;1733752;83;20222;-80
2022/06/15 00:56:19;;;;;;;;;;;;;;;15.76;95.37;99876.83;1731843;83;20302;-80
2022/06/15 00:59:30;;;;;;;;;;;;;;;15.79;95.65;99879.16;1732632;83;20644;-80
2022/06/15 01:02:35;;;;;;;;;;;;;;;15.82;96.03;99885.63;1733338;83;20616;-80
2022/06/15 01:06:00;;;;;;;;;;;;;;;15.84;95.96;99888.45;1733585;83;20230;-80
2022/06/15 01:09:26;;;;;;;;;;;;;;;15.87;95.55;99890.47;1731606;83;20222;-80
2022/06/15 01:12:57;;;;;;;;;;;;;;;15.89;95.55;99897.98;1733669;83;20242;-80
2022/06/15 01:16:21;;;;;;;;;;;;;;;15.91;95.27;99891.73;1733490;83;20222;-81
2022/06/15 01:19:57;;;;;;;;;;;;;;;15.90;95.40;99896.37;1735957;82;20230;-81
2022/06/15 01:23:26;;;;;;;;;;;;;;;15.93;95.53;99893.72;1733364;83;20229;-81
2022/06/15 01:26:45;;;;;;;;;;;;;;;15.95;95.95;99899.84;1733336;83;20636;-80
2022/06/15 01:30:12;;;;;;;;;;;;;;;15.96;96.26;99883.62;1735427;82;20195;-80
2022/06/15 01:33:33;;;;;;;;;;;;;;;15.96;96.57;99881.72;1723769;83;20223;-81
2022/06/15 01:36:58;;;;;;;;;;;;;;;15.98;96.83;99883.70;1710666;84;21188;-80
2022/06/15 01:40:16;;;;;;;;;;;;;;;16.00;97.20;99887.10;1703076;84;20217;-80
2022/06/15 01:43:24;;;;;;;;;;;;;;;16.01;97.37;99891.55;1708972;84;20330;-80
2022/06/15 01:46:31;;;;;;;;;;;;;;;16.03;97.50;99903.73;1739895;82;20414;-80
2022/06/15 01:49:38;;;;;;;;;;;;;;;16.06;97.59;99900.53;1739419;82;20213;-80
2022/06/15 01:52:42;;;;;;;;;;;;;;;16.09;97.36;99900.95;1739748;82;20216;-81
2022/06/15 01:55:49;;;;;;;;;;;;;;;16.10;97.29;99890.21;1739684;82;20242;-81
2022/06/15 01:58:57;;;;;;;;;;;;;;;16.14;97.19;99900.78;1739969;82;20347;-81
2022/06/15 02:02:13;;;;;;;;;;;;;;;16.14;97.03;99901.66;1739918;82;20241;-81
2022/06/15 02:05:23;;;;;;;;;;;;;;;16.15;96.83;99901.13;1739122;82;20253;-81
2022/06/15 02:08:44;;;;;;;;;;;;;;;16.15;96.27;99906.64;1738207;82;20655;-81
2022/06/15 02:11:44;;;;;;;;;;;;;;;16.15;95.84;99906.10;1738056;82;20236;-81
2022/06/15 02:14:56;;;;;;;;;;;;;;;16.15;95.53;99919.05;1739694;82;20646;-81
2022/06/15 02:18:00;;;;;;;;;;;;;;;16.15;95.10;99917.67;1739888;82;20212;-81
2022/06/15 02:21:08;;;;;;;;;;;;;;;16.13;94.40;99912.89;1738434;82;20701;-81
2022/06/15 02:24:16;;;;;;;;;;;;;;;16.10;94.28;99920.56;1714409;82;20398;-81
2022/06/15 02:27:22;;;;;;;;;;;;;;;16.07;94.16;99914.64;1739889;82;20197;-81
2022/06/15 02:30:31;;;;;;;;;;;;;;;16.06;94.18;99922.61;1739131;82;20225;-81
2022/06/15 02:33:42;;;;;;;;;;;;;;;16.04;94.46;99931.62;1738681;82;20228;-81
2022/06/15 02:36:47;;;;;;;;;;;;;;;16.02;94.43;99923.58;1738227;82;20314;-81
2022/06/15 02:39:53;;;;;;;;;;;;;;;15.99;94.32;99915.73;1738298;82;20201;-81
2022/06/15 02:43:00;;;;;;;;;;;;;;;15.97;94.32;99914.28;1739849;82;20241;-81
2022/06/15 02:46:07;;;;;;;;;;;;;;;15.97;94.21;99917.87;1739985;82;20428;-81
2022/06/15 02:49:12;;;;;;;;;;;;;;;15.97;94.18;99912.36;1739860;82;20233;-81
2022/06/15 02:52:16;;;;;;;;;;;;;;;16.00;94.43;99911.09;1745798;82;20274;-81
2022/06/15 02:55:23;;;;;;;;;;;;;;;16.02;94.21;99918.59;1751450;81;20641;-81
2022/06/15 02:58:33;;;;;;;;;;;;;;;16.03;94.41;99917.52;1751515;82;20204;-81
2022/06/15 03:01:37;;;;;;;;;;;;;;;16.05;94.51;99917.63;1752082;82;20673;-80
2022/06/15 03:04:41;;;;;;;;;;;;;;;16.09;94.34;99923.02;1753131;82;20200;-80
2022/06/15 03:07:47;;;;;;;;;;;;;;;16.16;94.19;99922.96;1753060;82;20614;-80
2022/06/15 03:10:52;;;;;;;;;;;;;;;16.27;94.07;99920.02;1751460;82;20232;-80
2022/06/15 03:13:58;;;;;;;;;;;;;;;16.41;93.79;99916.63;1751503;82;20236;-81
2022/06/15 03:17:04;;;;;;;;;;;;;;;16.69;93.00;99918.41;1751613;82;20253;-81
2022/06/15 03:20:04;;;;;;;;;;;;;;;17.05;91.63;99921.83;1753075;82;20248;-81
2022/06/15 03:23:09;;;;;;;;;;;;;;;17.45;89.28;99929.67;1753199;82;20220;-81
2022/06/15 03:26:15;;;;;;;;;;;;;;;17.68;86.81;99926.75;1753103;82;20212;-81
2022/06/15 03:29:19;;;;;;;;;;;;;;;17.70;85.56;99929.61;1753028;82;20625;-78
2022/06/15 03:32:27;;;;;;;;;;;;;;;17.60;84.91;99929.31;1751570;82;20208;-81
2022/06/15 03:35:35;;;;;;;;;;;;;;;17.57;84.80;99930.61;1753031;82;20708;-81
2022/06/15 03:38:41;;;;;;;;;;;;;;;17.61;84.19;99931.84;1753073;82;20622;-81
2022/06/15 03:41:49;;;;;;;;;;;;;;;17.80;83.23;99930.47;1751712;82;20232;-81
2022/06/15 03:44:54;;;;;;;;;;;;;;;17.96;82.01;99935.34;1753199;82;20676;-80
2022/06/15 03:47:58;;;;;;;;;;;;;;;17.98;81.02;99941.51;1753207;82;20208;-81
2022/06/15 03:51:03;;;;;;;;;;;;;;;18.17;80.72;99949.77;1752680;82;20716;-81
2022/06/15 03:54:13;;;;;;;;;;;;;;;18.48;79.49;99948.11;1751740;82;20244;-81
2022/06/15 03:57:19;;;;;;;;;;;;;;;18.86;78.35;99969.05;1753151;82;20200;-81
2022/06/15 04:00:26;;;;;;;;;;;;;;;19.14;76.15;99969.19;1753236;82;20236;-81
2022/06/15 04:03:32;;;;;;;;;;;;;;;19.27;74.48;99977.81;1753256;82;20236;-81
2022/06/15 04:06:39;;;;;;;;;;;;;;;19.14;73.82;99983.59;1752527;82;20220;-81
2022/06/15 04:09:45;;;;;;;;;;;;;;;19.04;74.65;99995.28;1753546;82;20220;-81
2022/06/15 04:12:51;;;;;;;;;;;;;;;18.94;74.95;99994.19;1728213;82;20237;-81
2022/06/15 04:15:56;;;;;;;;;;;;;;;18.78;74.47;99986.05;1752942;82;20650;-81
2022/06/15 04:19:02;;;;;;;;;;;;;;;18.55;74.74;99987.63;1753075;82;20625;-81
2022/06/15 04:22:07;;;;;;;;;;;;;;;18.45;75.88;99994.29;1752240;82;20243;-81
2022/06/15 04:25:13;;;;;;;;;;;;;;;18.34;76.60;99988.98;1753504;82;20220;-81
2022/06/15 04:28:19;;;;;;;;;;;;;;;18.29;77.52;99981.09;1753235;82;20236;-81
2022/06/15 04:31:26;;;;;;;;;;;;;;;18.27;78.13;99987.42;1752751;82;20732;-80
2022/06/15 04:34:30;;;;;;;;;;;;;;;18.33;78.89;99994.77;1751553;82;20212;-81
2022/06/15 04:37:37;;;;;;;;;;;;;;;18.52;78.62;99996.95;1752174;82;20213;-81
2022/06/15 04:40:46;;;;;;;;;;;;;;;18.68;77.70;99996.80;1752421;82;20441;-81
2022/06/15 04:43:51;;;;;;;;;;;;;;;18.75;77.16;100000.36;1753183;82;20291;-81
2022/06/15 04:46:54;;;;;;;;;;;;;;;18.75;76.53;100008.12;1753159;82;20633;-81
2022/06/15 04:49:59;;;;;;;;;;;;;;;18.73;76.13;100007.53;1753153;82;20208;-81
2022/06/15 04:53:06;;;;;;;;;;;;;;;18.89;75.97;100008.76;1751693;82;20224;-81
2022/06/15 04:56:13;;;;;;;;;;;;;;;19.05;75.81;100006.66;1744635;82;20253;-81
2022/06/15 04:59:22;;;;;;;;;;;;;;;19.25;74.02;100020.20;1744731;82;20232;-80
2022/06/15 05:02:28;;;;;;;;;;;;;;;19.43;71.84;100024.77;1743945;82;20244;-80
2022/06/15 05:05:32;;;;;;;;;;;;;;;19.49;71.87;100018.27;1729293;82;20210;-80
2022/06/15 05:08:37;;;;;;;;;;;;;;;19.49;71.14;100015.50;1713932;84;20227;-80
2022/06/15 05:11:42;;;;;;;;;;;;;;;19.45;70.90;100011.52;1713797;83;20253;-80
2022/06/15 05:14:49;;;;;;;;;;;;;;;19.35;70.93;100016.28;1713689;84;20223;-80
2022/06/15 05:17:56;;;;;;;;;;;;;;;19.30;70.79;100020.88;1715062;84;20246;-80
2022/06/15 05:21:02;;;;;;;;;;;;;;;19.31;70.68;100021.16;1714585;84;20251;-80
2022/06/15 05:24:07;;;;;;;;;;;;;;;19.37;70.75;100021.58;1712820;84;20218;-80
2022/06/15 05:27:15;;;;;;;;;;;;;;;19.59;70.29;100025.98;1715807;82;20266;-80
2022/06/15 05:30:21;;;;;;;;;;;;;;;19.89;69.46;100028.08;1714908;84;20218;-81
2022/06/15 05:33:27;;;;;;;;;;;;;;;20.17;67.71;100036.16;1713858;84;20620;-80
2022/06/15 05:36:36;;;;;;;;;;;;;;;20.30;65.24;100030.33;1715223;84;20270;-80
2022/06/15 05:39:40;;;;;;;;;;;;;;;20.39;64.57;100030.78;1715222;84;20649;-80
2022/06/15 05:42:44;;;;;;;;;;;;;;;20.50;63.77;100030.45;1732967;82;20272;-81
2022/06/15 05:45:53;;;;;;;;;;;;;;;20.70;62.56;100029.99;1744784;82;20264;-81
2022/06/15 05:48:57;;;;;;;;;;;;;;;20.85;61.29;100033.92;1742660;82;20216;-81
2022/06/15 05:52:02;;;;;;;;;;;;;;;20.91;60.01;100033.45;1733108;82;20418;-80
2022/06/15 05:55:08;;;;;;;;;;;;;;;21.00;59.74;100036.67;1718169;83;20226;-80
2022/06/15 05:58:13;;;;;;;;;;;;;;;21.16;58.40;100033.87;1734223;82;20276;-79
2022/06/15 06:01:20;;;;;;;;;;;;;;;21.25;58.43;100039.87;1742099;82;20204;-80
2022/06/15 06:04:26;;;;;;;;;;;;;;;21.24;56.66;100047.92;1749000;82;20216;-80
2022/06/15 06:07:32;;;;;;;;;;;;;;;21.22;56.54;100051.52;1735935;80;20259;-80
2022/06/15 06:10:36;;;;;;;;;;;;;;;21.15;54.75;100050.28;1743616;80;20210;-80
2022/06/15 06:13:48;;;;;;;;;;;;;;;21.03;55.01;100044.48;1768407;80;20291;-80
2022/06/15 06:17:08;;;;;;;;;;;;;;;20.85;54.61;100045.58;1720762;83;20238;-80
2022/06/15 06:20:18;;;;;;;;;;;;;;;20.66;54.00;100048.58;1692293;85;20532;-80
2022/06/15 06:23:26;;;;;;;;;;;;;;;20.55;53.76;100057.79;1694264;85;20309;-80
2022/06/15 06:26:36;;;;;;;;;;;;;;;20.40;53.51;100065.25;1693768;85;20792;-81
2022/06/15 06:29:42;;;;;;;;;;;;;;;20.42;53.18;100068.64;1694124;85;20286;-81
2022/06/15 06:32:56;;;;;;;;;;;;;;;20.56;53.33;100069.23;1689538;82;20251;-80
2022/06/15 06:36:06;;;;;;;;;;;;;;;20.82;54.79;100064.14;1739108;82;20426;-79
2022/06/15 06:39:27;;;;;;;;;;;;;;;21.15;53.83;100068.36;1712241;83;21162;-80
2022/06/15 06:42:32;;;;;;;;;;;;;;;21.57;53.02;100077.70;1748019;82;20221;-82
2022/06/15 06:45:35;;;;;;;;;;;;;;;21.78;51.88;100071.88;1738725;82;20625;-83
2022/06/15 06:48:39;;;;;;;;;;;;;;;21.89;52.15;100065.38;1720960;83;20211;-81
2022/06/15 06:51:45;;;;;;;;;;;;;;;21.97;51.98;100087.75;1722444;83;20267;-81
2022/06/15 06:54:48;;;;;;;;;;;;;;;21.89;51.41;100082.64;1722626;82;20298;-81
2022/06/15 06:57:51;;;;;;;;;;;;;;;21.85;50.60;100077.29;1735982;82;20205;-81
2022/06/15 07:00:56;;;;;;;;;;;;;;;21.84;50.10;100078.39;1714859;82;20228;-82
2022/06/15 07:04:00;;;;;;;;;;;;;;;21.82;50.65;100089.77;1731468;82;20233;-81
2022/06/15 07:07:06;;;;;;;;;;;;;;;21.76;51.26;100103.32;1719674;82;20247;-81
2022/06/15 07:10:14;;;;;;;;;;;;;;;21.68;51.35;100087.88;1716036;82;20249;-81
2022/06/15 07:13:19;;;;;;;;;;;;;;;21.65;51.98;100093.14;1713562;83;20253;-81
2022/06/15 07:16:25;;;;;;;;;;;;;;;21.64;52.26;100083.95;1691037;83;20232;-81
2022/06/15 07:19:31;;;;;;;;;;;;;;;21.71;51.08;100087.09;1715234;82;20216;-81
2022/06/15 07:22:40;;;;;;;;;;;;;;;21.81;49.71;100080.28;1685885;84;20236;-81
2022/06/15 07:25:45;;;;;;;;;;;;;;;21.80;49.26;100086.96;1720319;82;20226;-81
2022/06/15 07:28:50;;;;;;;;;;;;;;;21.67;48.83;100091.77;1720099;82;20243;-81
2022/06/15 07:31:58;;;;;;;;;;;;;;;21.57;49.88;100084.66;1737302;82;20241;-81
2022/06/15 07:35:03;;;;;;;;;;;;;;;21.60;50.37;100081.93;1744501;82;21139;-81
2022/06/15 07:38:06;;;;;;;;;;;;;;;21.87;49.01;100076.47;1741748;82;20237;-81
2022/06/15 07:41:12;;;;;;;;;;;;;;;22.22;48.27;100073.38;1746498;82;20219;-81
2022/06/15 07:44:23;;;;;;;;;;;;;;;22.48;46.68;100068.11;1717559;82;20201;-81
2022/06/15 07:50:45;;;;;;;;;;;;;;;22.65;44.37;100061.91;1709485;82;20307;-82
2022/06/15 07:53:43;;;;;;;;;;;;;;;22.62;43.86;100060.47;1719744;82;20260;-81
2022/06/15 07:56:49;;;;;;;;;;;;;;;22.44;44.64;100060.29;1729462;82;20203;-81
2022/06/15 07:59:57;;;;;;;;;;;;;;;22.31;43.16;100069.04;1702099;83;20680;-82
2022/06/15 08:03:04;;;;;;;;;;;;;;;22.23;44.36;100080.63;1693078;83;20234;-81
2022/06/15 08:06:08;;;;;;;;;;;;;;;22.25;45.00;100064.48;1690318;83;20242;-81
2022/06/15 08:09:13;;;;;;;;;;;;;;;22.39;45.75;100078.87;1695292;83;20673;-81
2022/06/15 08:12:23;;;;;;;;;;;;;;;22.48;44.36;100073.12;1700066;83;20194;-81
2022/06/15 08:15:29;;;;;;;;;;;;;;;22.35;44.20;100084.70;1709813;83;20268;-81
2022/06/15 08:18:36;;;;;;;;;;;;;;;22.07;44.69;100082.90;1704683;83;20608;-80
2022/06/15 08:21:41;;;;;;;;;;;;;;;21.87;45.56;100077.86;1709870;83;20234;-81
2022/06/15 08:24:46;;;;;;;;;;;;;;;21.91;44.32;100081.82;1704824;83;20255;-81
2022/06/15 08:27:50;;;;;;;;;;;;;;;22.08;43.81;100081.80;1682493;84;20262;-81
2022/06/15 08:30:56;;;;;;;;;;;;;;;22.25;43.41;100085.38;1681944;84;20240;-81
2022/06/15 08:34:03;;;;;;;;;;;;;;;22.43;43.36;100092.58;1671210;85;20226;-81
2022/06/15 08:37:08;;;;;;;;;;;;;;;22.57;43.92;100092.47;1659949;85;20228;-81
2022/06/15 08:40:13;;;;;;;;;;;;;;;22.60;41.94;100088.34;1677316;85;20209;-81
2022/06/15 08:43:34;;;;;;;;;;;;;;;22.50;41.32;100098.81;1714464;83;20242;-81
2022/06/15 08:46:57;;;;;;;;;;;;;;;22.32;42.21;100097.73;1696808;83;20252;-81
2022/06/15 08:50:19;;;;;;;;;;;;;;;22.26;42.39;100082.07;1717374;83;20226;-81
2022/06/15 08:53:26;;;;;;;;;;;;;;;22.22;42.96;100093.44;1712631;83;20214;-81
2022/06/15 08:56:34;;;;;;;;;;;;;;;22.28;42.67;100094.63;1706479;83;20218;-81
2022/06/15 08:59:53;;;;;;;;;;;;;;;22.43;42.88;100085.05;1686262;83;20212;-81
2022/06/15 09:03:08;;;;;;;;;;;;;;;22.63;41.92;100090.05;1710160;83;20223;-81
2022/06/15 09:06:27;;;;;;;;;;;;;;;22.62;40.58;100102.28;1710415;83;20652;-81
2022/06/15 09:09:42;;;;;;;;;;;;;;;22.63;41.42;100091.45;1712068;83;20210;-81
2022/06/15 09:12:59;;;;;;;;;;;;;;;22.68;40.52;100119.38;1708948;83;20226;-81
2022/06/15 09:16:17;;;;;;;;;;;;;;;22.56;40.22;100096.37;1704564;83;20254;-81
2022/06/15 09:19:29;;;;;;;;;;;;;;;22.56;40.96;100091.34;1707124;83;20640;-81
2022/06/15 09:22:41;;;;;;;;;;;;;;;22.76;39.96;100099.09;1710536;83;20242;-81
2022/06/15 09:25:52;;;;;;;;;;;;;;;22.85;39.51;100091.39;1703030;83;20219;-81
2022/06/15 09:29:01;;;;;;;;;;;;;;;22.92;39.79;100100.44;1693837;83;20218;-82
2022/06/15 09:32:09;;;;;;;;;;;;;;;22.94;39.83;100094.03;1706746;83;20294;-81
2022/06/15 09:35:18;;;;;;;;;;;;;;;22.97;38.88;100098.26;1689344;85;20236;-81
2022/06/15 09:38:22;;;;;;;;;;;;;;;22.99;38.34;100097.98;1718278;83;20242;-81
2022/06/15 09:41:30;;;;;;;;;;;;;;;23.05;37.79;100089.39;1715560;83;20228;-81
2022/06/15 09:44:57;;;;;;;;;;;;;;;23.06;38.06;100093.89;1700919;83;20201;-81
2022/06/15 09:48:26;;;;;;;;;;;;;;;23.07;37.78;100094.72;1717342;83;20672;-81
2022/06/15 09:51:59;;;;;;;;;;;;;;;23.10;36.79;100116.49;1690415;83;20685;-81
2022/06/15 09:55:08;;;;;;;;;;;;;;;23.11;37.60;100100.91;1703278;84;20667;-81
2022/06/15 09:58:14;;;;;;;;;;;;;;;23.16;37.58;100109.33;1663851;85;20633;-81
2022/06/15 10:01:18;;;;;;;;;;;;;;;23.15;37.91;100096.48;1694820;83;20236;-81
2022/06/15 10:04:32;;;;;;;;;;;;;;;23.17;37.51;100102.63;1732354;81;20688;-82
2022/06/15 10:07:41;;;;;;;;;;;;;;;23.19;37.30;100089.80;1723784;83;20202;-82
2022/06/15 10:11:01;;;;;;;;;;;;;;;23.25;37.35;100093.51;1714554;83;20666;-82
2022/06/15 10:14:24;;;;;;;;;;;;;;;23.25;37.08;100094.91;1721650;83;20210;-81
2022/06/15 10:17:34;;;;;;;;;;;;;;;23.24;37.66;100090.41;1716628;83;20218;-82
2022/06/15 10:20:43;;;;;;;;;;;;;;;23.31;37.05;100089.09;1718484;83;20699;-82
2022/06/15 10:24:14;;;;;;;;;;;;;;;23.41;36.21;100077.17;1724280;83;20242;-82
2022/06/15 10:27:27;;;;;;;;;;;;;;;23.47;35.73;100089.48;1723328;83;20202;-82
2022/06/15 10:30:31;;;;;;;;;;;;;;;23.51;35.65;100088.41;1720956;83;20280;-82
2022/06/15 10:33:46;;;;;;;;;;;;;;;23.51;37.08;100082.83;1719210;83;20651;-82
2022/06/15 10:36:51;;;;;;;;;;;;;;;23.57;36.21;100066.95;1714467;83;20539;-82
2022/06/15 10:40:01;;;;;;;;;;;;;;;23.58;35.51;100068.10;1722693;83;20711;-82
2022/06/15 10:43:16;;;;;;;;;;;;;;;23.65;35.25;100081.29;1705163;83;20715;-82
2022/06/15 10:46:21;;;;;;;;;;;;;;;23.71;35.01;100073.26;1727597;82;20257;-82
2022/06/15 10:49:27;;;;;;;;;;;;;;;23.70;34.58;100074.34;1732547;82;20687;-82
2022/06/15 10:52:44;;;;;;;;;;;;;;;23.68;34.60;100069.59;1730057;82;20687;-82
2022/06/15 11:02:46;;;;;;;;;;;;;;;23.67;33.78;100069.31;1725484;82;20643;-81
2022/06/15 11:05:53;;;;;;;;;;;;;;;23.63;34.49;100065.34;1729393;82;20218;-81
2022/06/15 11:08:58;;;;;;;;;;;;;;;23.67;34.02;100062.34;1732099;82;20464;-82
2022/06/15 11:12:03;;;;;;;;;;;;;;;23.67;33.99;100058.15;1733510;82;20229;-82
2022/06/15 11:15:15;;;;;;;;;;;;;;;23.69;33.64;100055.08;1722795;83;20238;-82
2022/06/15 11:18:33;;;;;;;;;;;;;;;23.77;33.37;100055.98;1733697;82;20523;-82
2022/06/15 11:21:46;;;;;;;;;;;;;;;23.80;33.35;100053.19;1732560;82;20777;-81
2022/06/15 11:25:03;;;;;;;;;;;;;;;23.77;34.00;100056.53;1730602;82;20313;-81
2022/06/15 11:28:12;;;;;;;;;;;;;;;23.80;33.45;100043.41;1733293;82;20237;-82
2022/06/15 11:31:20;;;;;;;;;;;;;;;23.80;33.25;100051.78;1732049;82;20642;-81
2022/06/15 11:34:25;;;;;;;;;;;;;;;23.79;33.57;100046.77;1723483;81;20240;-81
2022/06/15 11:37:52;;;;;;;;;;;;;;;23.85;33.47;100037.85;1729618;82;20246;-81
2022/06/15 11:40:59;;;;;;;;;;;;;;;23.88;33.14;100042.34;1731279;82;20210;-81
2022/06/15 11:44:04;;;;;;;;;;;;;;;23.94;33.47;100041.81;1731184;83;20281;-81
2022/06/15 11:47:21;;;;;;;;;;;;;;;24.08;33.21;100046.36;1730237;83;20214;-81
2022/06/15 11:50:30;;;;;;;;;;;;;;;24.16;32.73;100041.66;1732365;82;20235;-82
2022/06/15 11:54:15;;;;;;;;;;;;;;;24.11;32.07;100039.67;1732904;82;20225;-81
2022/06/15 11:57:23;;;;;;;;;;;;;;;24.11;31.91;100047.22;1700667;84;20229;-81
2022/06/15 12:00:37;;;;;;;;;;;;;;;24.16;31.87;100045.28;1728541;83;20219;-81
2022/06/15 12:03:45;;;;;;;;;;;;;;;24.20;31.10;100047.82;1706764;83;20215;-81
2022/06/15 12:07:06;;;;;;;;;;;;;;;24.26;29.58;100045.05;1712148;83;20200;-82
2022/06/15 12:10:24;;;;;;;;;;;;;;;24.26;29.91;100038.90;1708183;83;20250;-81
2022/06/15 12:13:53;;;;;;;;;;;;;;;24.30;30.08;100045.62;1715538;83;20651;-82
2022/06/15 12:17:04;;;;;;;;;;;;;;;24.38;30.87;100049.33;1714426;83;20202;-82
2022/06/15 12:20:23;;;;;;;;;;;;;;;24.44;30.58;100055.22;1714099;83;20252;-82
2022/06/15 12:24:05;;;;;;;;;;;;;;;24.43;30.35;100042.92;1713325;83;20220;-82
2022/06/15 12:27:25;;;;;;;;;;;;;;;24.40;30.26;100047.65;1692974;84;20202;-82
2022/06/15 12:30:54;;;;;;;;;;;;;;;24.33;30.26;100047.89;1667701;85;20624;-81
2022/06/15 12:34:10;;;;;;;;;;;;;;;24.27;30.35;100041.13;1705215;83;20241;-82
2022/06/15 12:37:26;;;;;;;;;;;;;;;24.19;30.46;100037.77;1709775;83;20223;-82
2022/06/15 12:40:49;;;;;;;;;;;;;;;24.12;30.41;100046.94;1710445;83;20211;-82
2022/06/15 12:43:55;;;;;;;;;;;;;;;24.12;29.94;100043.30;1720587;83;20236;-82
2022/06/15 12:47:00;;;;;;;;;;;;;;;24.16;29.21;100055.06;1688864;84;20238;-82
2022/06/15 12:50:29;;;;;;;;;;;;;;;24.12;29.58;100067.89;1703428;83;20312;-82
2022/06/15 12:53:38;;;;;;;;;;;;;;;24.06;29.42;100047.20;1714798;83;20249;-82
2022/06/15 12:57:00;;;;;;;;;;;;;;;24.01;30.37;100045.78;1705433;83;20203;-81
2022/06/15 13:00:14;;;;;;;;;;;;;;;24.05;29.64;100047.76;1712209;83;20206;-82
2022/06/15 13:03:41;;;;;;;;;;;;;;;24.04;29.76;100034.88;1700607;83;20198;-82
2022/06/15 13:06:47;;;;;;;;;;;;;;;24.07;29.67;100038.53;1712157;83;20230;-82
2022/06/15 13:10:15;;;;;;;;;;;;;;;24.09;29.84;100046.11;1716927;83;20214;-82
2022/06/15 13:13:32;;;;;;;;;;;;;;;24.10;30.02;100033.81;1712239;83;20186;-81
2022/06/15 13:16:42;;;;;;;;;;;;;;;24.06;30.57;100039.66;1733068;82;20291;-82
2022/06/15 13:19:51;;;;;;;;;;;;;;;23.98;29.36;100044.36;1732945;82;20594;-81
2022/06/15 13:22:57;;;;;;;;;;;;;;;23.90;29.90;100049.05;1726151;82;20729;-82
2022/06/15 13:26:08;;;;;;;;;;;;;;;23.86;29.78;100035.37;1729300;82;20730;-81
2022/06/15 13:29:24;;;;;;;;;;;;;;;23.80;30.21;100042.02;1727427;82;20230;-81
2022/06/15 13:33:00;;;;;;;;;;;;;;;23.83;30.78;100040.09;1718595;82;20682;-82
2022/06/15 13:36:23;;;;;;;;;;;;;;;23.93;30.58;100033.16;1740395;82;20643;-81
2022/06/15 13:39:33;;;;;;;;;;;;;;;24.03;30.80;100041.59;1737825;82;20619;-81
2022/06/15 13:42:48;;;;;;;;;;;;;;;24.10;30.79;100035.21;1709799;83;20656;-81
2022/06/15 13:45:52;;;;;;;;;;;;;;;24.18;29.86;100033.83;1704732;84;20782;-81
2022/06/15 13:48:59;;;;;;;;;;;;;;;24.15;30.33;100052.55;1732525;82;20218;-81
2022/06/15 13:52:07;;;;;;;;;;;;;;;24.02;30.38;100034.33;1739705;82;20221;-81
2022/06/15 13:55:28;;;;;;;;;;;;;;;23.95;30.74;100035.14;1735138;81;20238;-80
2022/06/15 13:59:03;;;;;;;;;;;;;;;23.94;30.79;100027.84;1736599;82;20304;-80
2022/06/15 14:02:22;;;;;;;;;;;;;;;23.95;30.57;100027.59;1700146;84;20226;-80
2022/06/15 14:05:47;;;;;;;;;;;;;;;23.93;30.03;100018.63;1712556;83;20198;-81
2022/06/15 14:09:08;;;;;;;;;;;;;;;23.90;30.60;100036.48;1705431;83;20238;-80
2022/06/15 14:12:34;;;;;;;;;;;;;;;23.88;30.20;100028.94;1734644;82;20236;-80
2022/06/15 14:15:43;;;;;;;;;;;;;;;23.90;30.03;100029.50;1667901;86;20258;-80
2022/06/15 14:18:58;;;;;;;;;;;;;;;23.90;30.02;100028.97;1714943;83;20202;-80
2022/06/15 14:22:16;;;;;;;;;;;;;;;23.92;30.45;100027.30;1717805;83;20301;-80
2022/06/15 14:25:23;;;;;;;;;;;;;;;23.93;30.12;100028.97;1722336;83;20400;-80
2022/06/15 14:28:30;;;;;;;;;;;;;;;23.95;30.55;100026.77;1720198;83;20241;-80
2022/06/15 14:31:37;;;;;;;;;;;;;;;23.92;30.57;100032.88;1711923;83;20242;-80
2022/06/15 14:34:43;;;;;;;;;;;;;;;23.91;30.63;100034.84;1713539;83;20206;-80
2022/06/15 14:37:47;;;;;;;;;;;;;;;23.95;30.18;100029.55;1711630;83;20904;-81
2022/06/15 14:40:52;;;;;;;;;;;;;;;23.96;29.89;100030.67;1699418;84;20648;-80
2022/06/15 14:43:57;;;;;;;;;;;;;;;23.97;30.32;100024.52;1700638;84;20270;-80
2022/06/15 14:47:10;;;;;;;;;;;;;;;23.94;30.52;100044.61;1722729;83;20622;-80
2022/06/15 14:50:14;;;;;;;;;;;;;;;23.88;30.42;100028.94;1720831;83;20217;-80
2022/06/15 14:53:23;;;;;;;;;;;;;;;23.78;30.91;100046.48;1694275;83;20206;-80
2022/06/15 14:56:31;;;;;;;;;;;;;;;23.67;30.98;100035.81;1696716;84;20212;-80
2022/06/15 14:59:48;;;;;;;;;;;;;;;23.58;31.08;100037.39;1708558;83;20292;-80
2022/06/15 15:02:55;;;;;;;;;;;;;;;23.54;31.31;100040.99;1721496;83;20238;-81
2022/06/15 15:06:01;;;;;;;;;;;;;;;23.50;31.64;100053.23;1703447;83;20270;-80
2022/06/15 15:09:08;;;;;;;;;;;;;;;23.43;32.15;100059.06;1718146;83;20482;-80
2022/06/15 15:12:20;;;;;;;;;;;;;;;23.35;31.63;100050.34;1701524;83;20604;-80
2022/06/15 15:15:22;;;;;;;;;;;;;;;23.20;31.75;100059.42;1702393;83;20430;-80
2022/06/15 15:18:36;;;;;;;;;;;;;;;23.02;32.10;100060.66;1702387;83;20243;-80
2022/06/15 15:21:44;;;;;;;;;;;;;;;22.87;32.41;100070.23;1718616;83;20218;-80
2022/06/15 15:24:51;;;;;;;;;;;;;;;22.76;32.49;100073.45;1710787;83;20216;-80
2022/06/15 15:35:03;;;;;;;;;;;;;;;22.60;32.77;100066.88;1702876;83;20645;-80
2022/06/15 15:38:26;;;;;;;;;;;;;;;22.58;33.06;100074.64;1695896;83;20228;-80
2022/06/15 15:41:31;;;;;;;;;;;;;;;22.56;32.49;100071.28;1700369;83;20642;-80
2022/06/15 15:44:36;;;;;;;;;;;;;;;22.57;32.79;100071.56;1715919;83;20217;-80
2022/06/15 15:47:40;;;;;;;;;;;;;;;22.57;32.55;100074.35;1715941;83;20280;-81
2022/06/15 15:50:45;;;;;;;;;;;;;;;22.57;32.13;100072.95;1685939;83;20395;-80
2022/06/15 15:53:48;;;;;;;;;;;;;;;22.56;30.89;100074.07;1688086;85;20645;-81
2022/06/15 15:56:54;;;;;;;;;;;;;;;22.53;30.59;100076.53;1692269;85;20227;-81
2022/06/15 15:59:59;;;;;;;;;;;;;;;22.49;30.45;100081.80;1690532;83;20284;-81
2022/06/15 16:03:06;;;;;;;;;;;;;;;22.44;31.06;100084.50;1704065;83;20229;-81
2022/06/15 16:06:11;;;;;;;;;;;;;;;22.41;32.04;100094.80;1710414;83;20238;-81
2022/06/15 16:09:17;;;;;;;;;;;;;;;22.35;32.33;100091.66;1687701;84;20813;-80
2022/06/15 16:12:22;;;;;;;;;;;;;;;22.30;32.54;100090.17;1682141;85;20240;-80
2022/06/15 16:15:28;;;;;;;;;;;;;;;22.26;33.17;100089.88;1681019;85;20252;-80
2022/06/15 16:18:33;;;;;;;;;;;;;;;22.22;32.79;100093.44;1680504;85;20220;-80
2022/06/15 16:21:39;;;;;;;;;;;;;;;22.16;33.45;100091.11;1680975;85;20268;-80
2022/06/15 16:24:44;;;;;;;;;;;;;;;22.11;33.87;100089.13;1680469;85;20225;-80
2022/06/15 16:27:51;;;;;;;;;;;;;;;22.04;34.07;100096.77;1680874;85;20189;-80
2022/06/15 16:30:56;;;;;;;;;;;;;;;21.97;34.88;100097.49;1679707;85;20395;-80
2022/06/15 16:34:00;;;;;;;;;;;;;;;21.89;35.35;100095.17;1681094;85;20253;-80
2022/06/15 16:37:05;;;;;;;;;;;;;;;21.81;36.00;100094.20;1679825;85;20698;-80